createdAt,value
2019-01-16T00:02:31.000Z,5.80
2019-01-16T00:05:07.814Z,6.20
2019-01-16T00:07:50.488Z,5.43
2019-01-16T00:10:20.791Z,5.60
2019-01-16T00:12:53.943Z,5.47
2019-01-16T00:15:27.378Z,5.20
2019-01-16T00:18:03.865Z,5.30
2019-01-16T00:20:40.437Z,5.53
2019-01-16T00:23:10.865Z,5.20
2019-01-16T00:25:57.469Z,5.63
2019-01-16T00:28:30.968Z,5.27
2019-01-16T00:31:16.854Z,5.40
2019-01-16T00:33:52.912Z,4.97
2019-01-16T00:36:26.309Z,5.53
2019-01-16T00:39:12.812Z,5.00
2019-01-16T00:41:43.182Z,4.67
2019-01-16T00:44:13.566Z,4.80
2019-01-16T00:46:46.959Z,5.00
2019-01-16T00:49:29.877Z,5.00
2019-01-16T00:52:09.266Z,5.60
2019-01-16T00:54:39.972Z,5.20
2019-01-16T00:57:10.476Z,4.43
2019-01-16T00:59:50.016Z,5.93
2019-01-16T01:02:23.185Z,5.13
2019-01-16T01:04:53.631Z,4.77
2019-01-16T01:07:36.044Z,4.10
2019-01-16T01:10:25.824Z,4.37
2019-01-16T01:13:08.549Z,5.27
2019-01-16T01:15:38.993Z,4.27
2019-01-16T01:18:09.495Z,4.60
2019-01-16T01:20:42.988Z,5.00
2019-01-16T01:23:31.949Z,5.00
2019-01-16T01:26:20.705Z,4.60
2019-01-16T01:29:06.191Z,4.70
2019-01-16T01:31:48.645Z,5.20
2019-01-16T01:34:28.541Z,5.03
2019-01-16T01:37:01.834Z,5.10
2019-01-16T01:39:38.360Z,4.27
2019-01-16T01:42:11.605Z,5.07
2019-01-16T01:44:58.307Z,4.70
2019-01-16T01:47:41.022Z,4.43
2019-01-16T01:50:11.590Z,4.83
2019-01-16T01:52:57.234Z,4.33
2019-01-16T01:55:33.704Z,4.70
2019-01-16T01:58:07.300Z,4.43
2019-01-16T02:00:53.191Z,4.13
2019-01-16T02:03:23.516Z,4.33
2019-01-16T02:05:53.839Z,4.40
2019-01-16T02:08:24.298Z,5.03
2019-01-16T02:11:06.979Z,4.77
2019-01-16T02:13:40.046Z,4.87
2019-01-16T02:16:10.410Z,4.77
2019-01-16T02:18:55.955Z,4.73
2019-01-16T02:21:35.411Z,5.17
2019-01-16T02:24:17.715Z,5.07
2019-01-16T02:26:48.020Z,5.07
2019-01-16T02:29:21.332Z,4.53
2019-01-16T02:31:51.658Z,5.33
2019-01-16T02:34:21.981Z,4.60
2019-01-16T02:36:52.512Z,4.83
2019-01-16T02:39:39.011Z,3.73
2019-01-16T02:42:18.413Z,4.10
2019-01-16T02:45:04.953Z,4.60
2019-01-16T02:47:41.226Z,3.90
2019-01-16T02:50:11.655Z,4.27
2019-01-16T02:52:48.010Z,3.83
2019-01-16T02:55:27.556Z,3.80
2019-01-16T02:58:13.640Z,3.90
2019-01-16T03:00:44.173Z,4.10
2019-01-16T03:03:30.162Z,4.47
2019-01-16T03:06:03.561Z,4.17
2019-01-16T03:08:49.244Z,4.20
2019-01-16T03:11:22.642Z,4.53
2019-01-16T03:13:53.066Z,4.20
2019-01-16T03:16:26.562Z,4.63
2019-01-16T03:19:09.382Z,4.30
2019-01-16T03:21:57.899Z,4.53
2019-01-16T03:24:37.189Z,3.80
2019-01-16T03:27:19.676Z,4.13
2019-01-16T03:29:49.980Z,4.43
2019-01-16T03:32:20.337Z,4.57
2019-01-16T03:34:59.727Z,4.60
2019-01-16T03:37:33.255Z,3.67
2019-01-16T03:40:19.046Z,3.87
2019-01-16T03:42:49.373Z,4.90
2019-01-16T03:45:26.045Z,4.40
2019-01-16T03:48:05.590Z,4.53
2019-01-16T03:50:35.954Z,4.40
2019-01-16T03:53:18.604Z,4.30
2019-01-16T03:55:57.989Z,4.40
2019-01-16T03:58:37.179Z,4.67
2019-01-16T04:01:07.723Z,4.80
2019-01-16T04:03:49.940Z,4.83
2019-01-16T04:06:20.347Z,4.50
2019-01-16T04:09:07.166Z,3.77
2019-01-16T04:11:37.594Z,4.13
2019-01-16T04:14:24.479Z,4.17
2019-01-16T04:17:10.180Z,4.43
2019-01-16T04:19:46.657Z,4.70
2019-01-16T04:22:29.158Z,4.30
2019-01-16T04:24:59.586Z,4.37
2019-01-16T04:27:48.467Z,4.90
2019-01-16T04:30:33.928Z,4.20
2019-01-16T04:33:20.950Z,4.60
2019-01-16T04:35:51.270Z,4.50
2019-01-16T04:38:34.086Z,4.60
2019-01-16T04:41:04.404Z,4.27
2019-01-16T04:43:40.983Z,4.83
2019-01-16T04:46:11.404Z,4.90
2019-01-16T04:48:43.056Z,5.10
2019-01-16T04:51:19.566Z,5.57
2019-01-16T04:53:56.196Z,5.17
2019-01-16T04:56:43.113Z,5.63
2019-01-16T04:59:25.739Z,5.70
2019-01-16T05:01:56.364Z,5.60
2019-01-16T05:04:32.718Z,5.03
2019-01-16T05:07:03.555Z,5.33
2019-01-16T05:09:39.721Z,5.53
2019-01-16T05:12:10.140Z,6.17
2019-01-16T05:14:46.295Z,5.63
2019-01-16T05:17:19.686Z,6.13
2019-01-16T05:19:53.300Z,6.60
2019-01-16T05:22:29.766Z,6.93
2019-01-16T05:25:15.249Z,6.80
2019-01-16T05:27:45.777Z,5.23
2019-01-16T05:30:19.175Z,6.30
2019-01-16T05:32:49.604Z,5.67
2019-01-16T05:35:36.208Z,6.43
2019-01-16T05:38:23.128Z,5.83
2019-01-16T05:41:10.338Z,6.30
2019-01-16T05:43:58.784Z,5.30
2019-01-16T05:46:44.366Z,6.07
2019-01-16T05:49:33.444Z,6.13
2019-01-16T05:52:03.814Z,5.87
2019-01-16T05:54:36.960Z,5.93
2019-01-16T05:57:10.245Z,6.93
2019-01-16T05:59:46.787Z,6.67
2019-01-16T06:02:33.944Z,7.00
2019-01-16T06:05:07.262Z,8.10
2019-01-16T06:07:40.413Z,6.87
2019-01-16T06:10:14.935Z,5.90
2019-01-16T06:12:57.239Z,6.33
2019-01-16T06:15:30.340Z,6.20
2019-01-16T06:18:03.826Z,5.50
2019-01-16T06:20:46.306Z,5.40
2019-01-16T06:23:17.065Z,7.37
2019-01-16T06:25:50.476Z,7.73
2019-01-16T06:28:37.484Z,7.70
2019-01-16T06:31:10.570Z,7.70
2019-01-16T06:33:47.449Z,6.33
2019-01-16T06:36:17.758Z,7.67
2019-01-16T06:39:04.785Z,8.13
2019-01-16T06:41:38.248Z,7.47
2019-01-16T06:44:17.880Z,5.90
2019-01-16T06:46:54.442Z,7.43
2019-01-16T06:49:24.824Z,6.50
2019-01-16T06:52:07.539Z,7.00
2019-01-16T06:54:41.470Z,7.30
2019-01-16T06:57:23.850Z,7.40
2019-01-16T06:59:56.927Z,8.43
2019-01-16T07:02:33.722Z,8.80
2019-01-16T07:05:10.081Z,10.37
2019-01-16T07:07:43.373Z,8.10
2019-01-16T07:10:30.495Z,8.83
2019-01-16T07:13:03.783Z,8.07
2019-01-16T07:15:46.909Z,7.40
2019-01-16T07:18:29.635Z,6.80
2019-01-16T07:21:06.195Z,7.87
2019-01-16T07:23:52.901Z,5.97
2019-01-16T07:26:26.377Z,6.23
2019-01-16T07:28:59.426Z,6.80
2019-01-16T07:31:46.631Z,6.97
2019-01-16T07:34:19.807Z,6.63
2019-01-16T07:36:50.229Z,6.47
2019-01-16T07:39:20.651Z,6.37
2019-01-16T07:41:57.119Z,8.47
2019-01-16T07:44:27.548Z,6.40
2019-01-16T07:47:13.036Z,5.60
2019-01-16T07:49:59.838Z,5.33
2019-01-16T07:52:42.241Z,5.30
2019-01-16T07:55:18.726Z,5.20
2019-01-16T07:57:49.035Z,5.53
2019-01-16T08:00:37.917Z,6.10
2019-01-16T08:03:08.216Z,5.90
2019-01-16T08:05:38.541Z,7.60
2019-01-16T08:08:25.351Z,6.27
2019-01-16T08:11:12.373Z,6.10
2019-01-16T08:13:42.755Z,6.60
2019-01-16T08:16:13.275Z,6.30
2019-01-16T08:18:55.989Z,7.37
2019-01-16T08:21:32.346Z,5.17
2019-01-16T08:24:19.316Z,5.80
2019-01-16T08:26:52.813Z,6.00
2019-01-16T08:29:29.484Z,5.37
2019-01-16T08:31:59.814Z,3.90
2019-01-16T08:37:18.073Z,5.60
2019-01-16T08:40:04.990Z,5.80
2019-01-16T08:42:35.310Z,5.47
2019-01-16T08:45:10.368Z,7.83
2019-01-16T08:47:46.611Z,6.07
2019-01-16T08:50:33.733Z,6.07
2019-01-16T08:53:04.050Z,6.73
2019-01-16T08:55:37.548Z,6.40
2019-01-16T08:58:14.293Z,5.40
2019-01-16T09:00:50.298Z,5.07
2019-01-16T09:03:20.704Z,5.40
2019-01-16T09:05:51.131Z,6.05
2019-01-16T09:08:27.045Z,5.87
2019-01-16T09:11:03.449Z,5.37
2019-01-16T09:13:33.796Z,4.40
2019-01-16T09:16:16.079Z,4.90
2019-01-16T09:18:49.272Z,5.27
2019-01-16T09:21:19.579Z,5.77
2019-01-16T09:23:49.919Z,5.90
2019-01-16T09:26:20.347Z,6.87
2019-01-16T09:28:50.642Z,5.37
2019-01-16T09:31:36.146Z,4.73
2019-01-16T09:34:23.064Z,4.63
2019-01-16T09:37:02.499Z,4.80
2019-01-16T09:39:44.991Z,5.13
2019-01-16T09:42:18.303Z,4.87
2019-01-16T09:44:48.627Z,4.30
2019-01-16T09:47:24.895Z,4.90
2019-01-16T09:50:04.371Z,4.17
2019-01-16T09:52:44.094Z,5.43
2019-01-16T09:55:23.247Z,4.27
2019-01-16T09:57:53.730Z,3.97
2019-01-16T10:00:36.344Z,4.70
2019-01-16T10:03:23.362Z,5.00
2019-01-16T10:06:02.487Z,4.70
2019-01-16T10:08:36.096Z,4.33
2019-01-16T10:11:12.353Z,4.50
2019-01-16T10:13:46.056Z,4.33
2019-01-16T10:16:32.971Z,4.00
2019-01-16T10:19:12.817Z,5.20
2019-01-16T10:21:43.144Z,4.53
2019-01-16T10:24:13.469Z,4.83
2019-01-16T10:26:46.975Z,5.70
2019-01-16T10:29:20.360Z,6.03
2019-01-16T10:32:02.604Z,6.37
2019-01-16T10:34:35.645Z,5.20
2019-01-16T10:37:06.045Z,4.47
2019-01-16T10:39:36.403Z,4.57
2019-01-16T10:42:06.728Z,3.67
2019-01-16T10:44:40.127Z,5.00
2019-01-16T10:47:23.042Z,4.50
2019-01-16T10:49:53.337Z,4.90
2019-01-16T10:52:29.936Z,5.37
2019-01-16T10:55:09.393Z,5.07
2019-01-16T10:57:39.904Z,5.03
2019-01-16T11:00:13.208Z,4.90
2019-01-16T11:02:46.694Z,4.30
2019-01-16T11:05:33.299Z,4.40
2019-01-16T11:08:03.647Z,4.43
2019-01-16T11:10:49.102Z,4.37
2019-01-16T11:13:37.636Z,5.13
2019-01-16T11:16:10.846Z,4.87
2019-01-16T11:18:41.154Z,4.60
2019-01-16T11:21:11.613Z,4.47
2019-01-16T11:23:58.125Z,4.73
2019-01-16T11:26:40.407Z,4.27
2019-01-16T11:29:22.749Z,5.70
2019-01-16T11:31:59.385Z,4.57
2019-01-16T11:34:44.861Z,5.10
2019-01-16T11:37:18.067Z,4.90
2019-01-16T11:40:04.459Z,4.47
2019-01-16T11:42:32.733Z,6.00
2019-01-16T11:45:21.463Z,4.70
2019-01-16T11:47:51.885Z,4.10
2019-01-16T11:50:38.829Z,5.63
2019-01-16T11:53:18.353Z,5.10
2019-01-16T11:56:04.875Z,5.70
2019-01-16T11:58:35.303Z,5.90
2019-01-16T12:01:24.569Z,7.40
2019-01-16T12:04:01.146Z,6.17
2019-01-16T12:06:31.452Z,5.73
2019-01-16T12:09:17.451Z,4.90
2019-01-16T12:11:50.541Z,5.20
2019-01-16T12:14:20.836Z,5.40
2019-01-16T12:17:07.490Z,5.83
2019-01-16T12:19:37.898Z,5.20
2019-01-16T12:22:08.220Z,5.43
2019-01-16T12:24:38.645Z,4.63
2019-01-16T12:27:10.417Z,5.20
2019-01-16T12:29:40.720Z,5.70
2019-01-16T12:32:27.538Z,6.43
2019-01-16T12:35:13.200Z,5.23
2019-01-16T12:37:43.547Z,5.63
2019-01-16T12:40:16.741Z,6.30
2019-01-16T12:42:47.059Z,7.23
2019-01-16T12:45:20.460Z,5.73
2019-01-16T12:48:09.012Z,7.10
2019-01-16T12:50:39.433Z,7.10
2019-01-16T12:53:18.771Z,7.00
2019-01-16T12:55:58.516Z,8.17
2019-01-16T12:58:34.779Z,9.20
2019-01-16T13:01:21.591Z,9.70
2019-01-16T13:04:01.130Z,8.93
2019-01-16T13:06:34.633Z,7.53
2019-01-16T13:09:21.588Z,9.37
2019-01-16T13:11:54.733Z,7.50
2019-01-16T13:14:33.865Z,9.83
2019-01-16T13:17:16.866Z,8.67
2019-01-16T13:19:47.209Z,9.83
2019-01-16T13:22:23.912Z,8.20
2019-01-16T13:24:54.310Z,9.13
2019-01-16T13:27:24.736Z,9.73
2019-01-16T13:30:07.208Z,8.00
2019-01-16T13:32:40.540Z,9.50
2019-01-16T13:35:20.078Z,10.33
2019-01-16T13:38:05.866Z,8.87
2019-01-16T13:40:42.699Z,9.67
2019-01-16T13:43:15.976Z,10.67
2019-01-16T13:45:49.251Z,10.80
2019-01-16T13:48:22.627Z,9.60
2019-01-16T13:50:52.949Z,10.17
2019-01-16T13:53:23.806Z,9.90
2019-01-16T13:55:54.211Z,9.67
2019-01-16T13:58:36.928Z,11.43
2019-01-16T14:01:07.458Z,16.73
2019-01-16T14:03:54.164Z,9.73
2019-01-16T14:06:33.806Z,10.67
2019-01-16T14:09:04.443Z,10.70
2019-01-16T14:11:40.762Z,8.33
2019-01-16T14:14:17.285Z,11.20
2019-01-16T14:16:59.596Z,12.00
2019-01-16T14:19:42.760Z,9.13
2019-01-16T14:22:18.992Z,8.13
2019-01-16T14:25:01.538Z,9.60
2019-01-16T14:27:48.387Z,11.17
2019-01-16T14:30:26.800Z,9.30
2019-01-16T14:33:12.178Z,6.50
2019-01-16T14:35:45.164Z,6.20
2019-01-16T14:38:18.251Z,6.47
2019-01-16T14:40:48.665Z,5.67
2019-01-16T14:43:34.337Z,7.50
2019-01-16T14:46:04.788Z,5.70
2019-01-16T14:48:35.113Z,5.53
2019-01-16T14:51:22.130Z,5.50
2019-01-16T14:53:52.451Z,5.90
2019-01-16T14:56:26.051Z,5.43
2019-01-16T14:59:05.793Z,5.23
2019-01-16T15:01:38.986Z,5.03
2019-01-16T15:04:09.416Z,5.87
2019-01-16T15:06:39.841Z,8.00
2019-01-16T15:09:15.387Z,7.17
2019-01-16T15:11:55.032Z,6.80
2019-01-16T15:14:28.123Z,7.00
2019-01-16T15:17:15.084Z,10.73
2019-01-16T15:19:54.574Z,10.00
2019-01-16T15:22:34.335Z,9.60
2019-01-16T15:25:07.579Z,7.47
2019-01-16T15:27:40.918Z,8.27
2019-01-16T15:30:29.199Z,8.77
2019-01-16T15:32:59.625Z,7.90
2019-01-16T15:35:35.752Z,10.97
2019-01-16T15:38:15.571Z,9.47
2019-01-16T15:40:51.955Z,12.07
2019-01-16T15:43:28.554Z,11.80
2019-01-16T15:46:04.625Z,12.33
2019-01-16T15:48:35.007Z,13.67
2019-01-16T15:51:21.583Z,12.03
2019-01-16T15:54:01.055Z,13.20
2019-01-16T15:56:47.657Z,12.37
2019-01-16T15:59:23.938Z,12.00
2019-01-16T16:02:06.678Z,13.90
2019-01-16T16:04:46.377Z,11.47
2019-01-16T16:07:28.580Z,14.57
2019-01-16T16:10:01.872Z,18.23
2019-01-16T16:12:48.660Z,14.40
2019-01-16T16:15:35.702Z,15.43
2019-01-16T16:18:22.119Z,13.97
2019-01-16T16:20:58.207Z,15.50
2019-01-16T16:23:43.948Z,17.20
2019-01-16T16:26:17.444Z,19.80
2019-01-16T16:28:47.748Z,15.63
2019-01-16T16:31:18.094Z,16.10
2019-01-16T16:33:57.615Z,12.43
2019-01-16T16:36:30.928Z,11.70
2019-01-16T16:39:04.431Z,10.93
2019-01-16T16:41:50.319Z,12.90
2019-01-16T16:44:20.822Z,15.50
2019-01-16T16:47:07.552Z,11.70
2019-01-16T16:49:37.914Z,8.83
2019-01-16T16:52:26.327Z,10.13
2019-01-16T16:54:56.956Z,11.13
2019-01-16T16:57:42.441Z,7.20
2019-01-16T17:00:30.779Z,7.67
2019-01-16T17:03:17.287Z,13.80
2019-01-16T17:06:04.195Z,10.40
2019-01-16T17:08:46.641Z,8.57
2019-01-16T17:11:32.597Z,8.17
2019-01-16T17:14:05.511Z,8.03
2019-01-16T17:16:41.890Z,12.77
2019-01-16T17:19:28.471Z,8.67
2019-01-16T17:22:14.882Z,9.07
2019-01-16T17:25:01.665Z,19.00
2019-01-16T17:27:48.323Z,22.87
2019-01-16T17:30:21.770Z,16.30
2019-01-16T17:33:08.685Z,20.07
2019-01-16T17:35:45.048Z,16.80
2019-01-16T17:38:21.723Z,12.03
2019-01-16T17:40:52.149Z,16.67
2019-01-16T17:43:39.266Z,20.40
2019-01-16T17:46:26.292Z,16.30
2019-01-16T17:48:56.909Z,10.43
2019-01-16T17:51:42.287Z,12.27
2019-01-16T17:54:29.200Z,10.37
2019-01-16T17:57:15.860Z,9.27
2019-01-16T17:59:46.331Z,8.30
2019-01-16T18:02:22.910Z,11.60
2019-01-16T18:05:02.654Z,8.00
2019-01-16T18:07:39.116Z,6.23
2019-01-16T18:10:12.103Z,9.23
2019-01-16T18:12:45.508Z,9.07
2019-01-16T18:15:19.406Z,7.87
2019-01-16T18:17:49.713Z,9.07
2019-01-16T18:20:20.158Z,8.77
2019-01-16T18:23:07.274Z,8.43
2019-01-16T18:25:53.061Z,7.93
2019-01-16T18:28:29.632Z,7.77
2019-01-16T18:31:00.059Z,6.50
2019-01-16T18:33:36.732Z,7.17
2019-01-16T18:36:07.259Z,6.40
2019-01-16T18:38:54.581Z,6.77
2019-01-16T18:41:31.049Z,7.20
2019-01-16T18:44:20.174Z,7.57
2019-01-16T18:46:50.478Z,6.73
2019-01-16T18:49:28.053Z,6.23
2019-01-16T18:52:24.307Z,5.63
2019-01-16T18:55:16.097Z,6.10
2019-01-16T18:57:57.563Z,6.63
2019-01-16T19:00:37.057Z,6.97
2019-01-16T19:03:10.321Z,6.30
2019-01-16T19:05:46.161Z,6.00
2019-01-16T19:08:21.750Z,7.87
2019-01-16T19:10:57.970Z,8.63
2019-01-16T19:13:56.679Z,6.63
2019-01-16T19:16:30.061Z,11.03
2019-01-16T19:19:17.112Z,6.27
2019-01-16T19:21:53.131Z,8.20
2019-01-16T19:24:26.264Z,7.80
2019-01-16T19:26:56.858Z,7.70
2019-01-16T19:29:36.495Z,6.17
2019-01-16T19:32:19.208Z,5.43
2019-01-16T19:35:06.124Z,6.67
2019-01-16T19:37:42.595Z,6.47
2019-01-16T19:40:20.232Z,7.43
2019-01-16T19:42:50.918Z,6.73
2019-01-16T19:45:27.091Z,7.27
2019-01-16T19:48:14.913Z,8.00
2019-01-16T19:51:00.292Z,7.10
2019-01-16T19:53:40.450Z,5.80
2019-01-16T19:56:33.193Z,5.53
2019-01-16T19:59:11.962Z,5.60
2019-01-16T20:01:42.340Z,5.50
2019-01-16T20:04:29.309Z,5.23
2019-01-16T20:07:02.650Z,4.60
2019-01-16T20:09:32.975Z,5.10
2019-01-16T20:12:03.406Z,4.63
2019-01-16T20:14:33.830Z,5.00
2019-01-16T20:17:04.156Z,4.57
2019-01-16T20:19:43.385Z,5.17
2019-01-16T20:22:29.837Z,5.93
2019-01-16T20:25:09.282Z,6.60
2019-01-16T20:27:57.881Z,6.47
2019-01-16T20:30:40.897Z,6.53
2019-01-16T20:33:17.061Z,6.70
2019-01-16T20:35:53.222Z,7.03
2019-01-16T20:38:23.544Z,8.57
2019-01-16T20:41:03.088Z,8.37
2019-01-16T20:43:33.549Z,7.30
2019-01-16T20:46:16.447Z,6.93
2019-01-16T20:48:46.857Z,6.27
2019-01-16T20:51:32.175Z,6.23
2019-01-16T20:54:05.320Z,6.43
2019-01-16T20:56:44.777Z,7.30
2019-01-16T20:59:15.186Z,6.23
2019-01-16T21:02:03.844Z,5.90
2019-01-16T21:04:43.496Z,5.97
2019-01-16T21:07:19.988Z,5.30
2019-01-16T21:09:59.285Z,5.70
2019-01-16T21:12:32.580Z,6.17
2019-01-16T21:15:21.102Z,6.43
2019-01-16T21:17:54.731Z,5.17
2019-01-16T21:20:37.148Z,6.17
2019-01-16T21:23:13.339Z,6.77
2019-01-16T21:25:58.784Z,6.30
2019-01-16T21:28:45.486Z,7.00
2019-01-16T21:31:21.753Z,7.03
2019-01-16T21:33:58.039Z,6.80
2019-01-16T21:36:34.479Z,6.97
2019-01-16T21:39:04.999Z,6.40
2019-01-16T21:41:41.580Z,7.00
2019-01-16T21:44:23.986Z,5.43
2019-01-16T21:46:54.303Z,5.63
2019-01-16T21:49:41.183Z,6.13
2019-01-16T21:52:26.708Z,5.40
2019-01-16T21:55:06.143Z,5.70
2019-01-16T21:57:53.053Z,5.53
2019-01-16T22:00:35.671Z,5.90
2019-01-16T22:03:21.243Z,5.27
2019-01-16T22:05:57.544Z,5.13
2019-01-16T22:08:33.986Z,4.80
2019-01-16T22:11:10.447Z,6.40
2019-01-16T22:13:52.921Z,6.27
2019-01-16T22:16:26.459Z,7.87
2019-01-16T22:18:56.884Z,6.23
2019-01-16T22:21:27.195Z,8.03
2019-01-16T22:24:15.758Z,7.10
2019-01-16T22:26:46.081Z,6.73
2019-01-16T22:29:16.406Z,6.47
2019-01-16T22:31:49.956Z,6.63
2019-01-16T22:34:32.312Z,6.60
2019-01-16T22:37:02.736Z,5.97
2019-01-16T22:39:39.207Z,5.13
2019-01-16T22:42:25.980Z,5.00
2019-01-16T22:45:12.850Z,5.57
2019-01-16T22:47:59.834Z,7.73
2019-01-16T22:50:33.095Z,6.10
2019-01-16T22:53:03.462Z,6.23
2019-01-16T22:55:39.931Z,8.10
2019-01-16T22:58:12.947Z,6.30
2019-01-16T23:01:00.952Z,6.87
2019-01-16T23:03:47.562Z,5.80
2019-01-16T23:06:36.011Z,5.67
2019-01-16T23:09:10.941Z,6.30
2019-01-16T23:11:44.542Z,5.37
2019-01-16T23:14:17.836Z,7.63
2019-01-16T23:16:54.406Z,5.80
2019-01-16T23:19:24.727Z,5.60
2019-01-16T23:22:11.746Z,5.60
2019-01-16T23:24:54.360Z,5.10
2019-01-16T23:27:34.000Z,5.73
2019-01-16T23:30:10.264Z,5.57
2019-01-16T23:32:43.353Z,5.17
2019-01-16T23:35:19.512Z,5.00
2019-01-16T23:38:05.609Z,5.23
2019-01-16T23:40:35.930Z,5.10
2019-01-16T23:43:09.170Z,4.77
2019-01-16T23:45:42.416Z,5.30
2019-01-16T23:48:15.607Z,5.40
2019-01-16T23:50:57.812Z,6.13
2019-01-16T23:53:37.097Z,5.30
2019-01-16T23:56:07.677Z,6.07
2019-01-16T23:58:56.633Z,5.70
